Terminal Aerodrome Forecast
Issued by NWS

Home | Current Version | Previous Version | Text Only | Print | Product List | Glossary Off
Versions: 1 2 3 4 5 6 7 8 9 10 11 12 13 14 15 16 17 18 19

158
FTUS43 KGRB 250538
TAFMTW
TAF
KMTW 250538Z 2506/2606 02010G18KT P6SM -RA OVC006
      TEMPO 2506/2510 5SM -RA BR OVC004
     FM251000 03012G20KT P6SM -RA OVC008
     FM251400 06013G21KT P6SM BKN015 OVC030
     FM252000 07012G18KT P6SM SCT015 OVC040 PROB30 2520/2524 5SM -RA
      BR BKN015
     FM260000 05009G16KT 3SM -RA BR OVC006=

USA.gov is the U.S. government's official web portal to all federal, state and local government web resources and services.